NLSK1: Solomon River, Niles, KS

                                SHEF ID:       NLSK1     SOLOMON R AT NILES, KS
STATION TYPE:

PRECIP STAGE RIV-FLOW BAT-LOAD
in ft cfs volt
Ccp-Rev Ccp-Rev Ccp-Rev Ccp-Rev
(America/Chicago)
06/24 00:00 0.00 11.56 1405 11.74
06/24 01:00 0.00 11.49 1386 11.90
06/24 02:00 0.00 11.40 1363 11.81
06/24 03:00 0.00 11.32 1342 11.83
06/24 04:00 0.00 11.22 1317 11.71
06/24 05:00 0.00 11.12 1291 11.75
06/24 06:00 0.00 11.02 1266 11.74
06/24 07:00 0.00 10.92 1241 11.77
06/24 08:00 0.00 10.81 1214 11.77
06/24 09:00 0.00 10.70 1187 11.80
06/24 10:00 0.00 10.59 1161 11.88
06/24 11:00 0.00 10.48 1134 12.33
06/24 12:00 0.00 10.37 1108 12.34
06/24 13:00 0.00 10.26 1082 12.36
06/24 14:00 0.00 10.16 1059 12.58
06/24 15:00 0.00 10.05 1033 12.50
06/24 16:00 0.00 9.94 1008 12.40
06/24 17:00 0.00 9.83 983 12.36
06/24 18:00 0.00 9.72 959 12.23
06/24 19:00 0.00 9.61 934 11.94
06/24 20:00 0.00 9.51 913 12.02
06/24 21:00 0.00 9.41 891 11.91
06/24 22:00 0.00 9.31 870 11.89
06/24 23:00 0.00 9.22 850 11.82
Data processed at Thu 25Jun2026 04:41 GMT

NOTICE: If you are parsing this page

Please convert to using our Data API. Starting early 2026 we will be migrating to: https://water.usace.army.mil with modern pages rendered in JavaScript. When this migration completes you will no longer be able to scrape this page! CWMSDataAPI (CDA)

Timeseries IDs (TSIDs)

TSIDs used from left to right in the data table
NLSK.Precip-Inc.Total.1Hour.1Hour.Ccp-Rev
NLSK.Stage.Inst.1Hour.0.Ccp-Rev
NLSK.Flow.Inst.1Hour.0.Ccp-Rev
NLSK.Volt-Battery Load.Inst.1Hour.0.Ccp-Rev

                            

All information presented herein is the property of the government of the United States of America and may be revised or deleted at any time without prior notice. Dissemination of this information without the expressed written consent of the Public Affairs Office, Tulsa District U.S. Army Corps of Engineers is strictly prohibited. These data are gathered electronically and, as presented, have NOT undergone any form of quality control. These data are NOT guaranteed to be valid or correct.